Lake City, CO

7:59 AM MDT on August 21, 2014 (GMT -0600)
Gunnison County | Change Station
CLOSE
Current Station
Airport
Location: Gunnison,
Elevation: 7674 ft
Nearby Weather Stations

Elev 7674 ft 38.53 °N, 106.93 °W | Updated 4 minutes ago

Clear
Clear
46 °F
Feels Like 46 °F
N
0
Wind Variable Wind from North

Today
High -- | Low -- °F
--% Chance of Precip.
Yesterday
High -- | Low -- °F
Precip. -- in
6:29 AM 7:54 PM
Waning Crescent, 14% visible
Pressure 30.37 in
Visibility 10.0 miles
Clouds Clear
Dew Point 37 °F
Humidity 71%
Rainfall 0.00 in
Snow Depth 1 in , 10 in
UV 1 out of 12
Pollen 10.10 out of 12
Air Quality Not available.
Flu Activity Not available.
METAR KGUC 211355Z AUTO 00000KT 10SM CLR 08/03 A3037 RMK AO1

More Conditions Fewer Conditions

Pressure 30.37 in
Visibility 10.0 miles
Clouds Clear
Dew Point 37 °F
Humidity 71%
Rainfall 0.00 in
Snow Depth 1 in , 10 in
UV 1 out of 12
Pollen 10.10 out of 12
Air Quality Not available.
Flu Activity Not available.
METAR KGUC 211355Z AUTO 00000KT 10SM CLR 08/03 A3037 RMK AO1

More Conditions Fewer Conditions

10-Day Weather Forecast

Almanac

Astronomy

Aug. 21, 2014 Rise Set
Actual Time 6:29 AM MDT 7:54 PM MDT
Civil Twilight 6:02 AM MDT 8:21 PM MDT
Nautical Twilight 5:28 AM MDT 8:55 PM MDT
Astronomical Twilight 4:53 AM MDT 9:29 PM MDT
Moon 3:04 AM MDT 5:23 PM MDT
Length of Visible Light 14h 19m
Length of Day
13h 24m
Tomorrow will be 2m 14s shorter.
Waning Crescent, 14% of the Moon is Illuminated
Today
Waning Crescent
Aug 25
New
Sep 2
First Quarter
Sep 8
Full
Sep 15
Last Quarter

Today's Extremes

State Highs State Lows

Community

WunderPhotos

Upload Photos

1,745,918 photos uploaded!

WunderBlogs® & News

Nearby

Snow Depth

Station Depth Elevation
Slumgullion 1 in 11440 ft
Idarado 10 in 9800 ft
Upper Rio Grande 1 in 9400 ft
Red Mountain Pass 0 in 11150 ft
Beartown 0 in 11600 ft

Earthquake Activity

City Distance Mag. Time & Date
No recent earthquake activity has been reported nearby.
Minimum magnitude displayed is 2.5.

Coastal Water Temperatures

Place Temperature
No Stations Reporting

Nearby Weather Stations